Time;durP1;ratioP1;P1;durP2;ratioP2;P2;SDS_P1;SDS_P2;PMS_P1;PMS_P2;Temp;Humidity;BMP_temperature;BMP_pressure;BME280_temperature;BME280_humidity;BME280_pressure;Samples;Min_cycle;Max_cycle;Signal;HPM_P1;HPM_P2
2021/06/15 00:00:08;;;;;;;;;;;;;;;;;;5156026;27;19923;-63
2021/06/15 00:02:35;;;;;;;;;;;;;;;;;;5156339;27;19923;-63
2021/06/15 00:05:02;;;;;;;;;;;;;;;;;;5156288;27;19923;-64
2021/06/15 00:07:29;;;;;;;;;;;;;;;;;;5156521;27;20307;-64
2021/06/15 00:09:56;;;;;;;;;;;;;;;;;;5155953;27;19930;-64
2021/06/15 00:12:23;;;;;;;;;;;;;;;;;;5156400;27;19923;-63
2021/06/15 00:14:49;;;;;;;;;;;;;;;;;;5156107;27;19931;-64
2021/06/15 00:17:16;;;;;;;;;;;;;;;;;;5156034;27;19930;-63
2021/06/15 00:19:43;;;;;;;;;;;;;;;;;;5155762;27;19930;-63
2021/06/15 00:22:10;;;;;;;;;;;;;;;;;;5156286;27;20232;-63
2021/06/15 00:24:37;;;;;;;;;;;;;;;;;;5148027;27;19923;-64
2021/06/15 00:27:04;;;;;;;;;;;;;;;;;;5135291;27;19924;-63
2021/06/15 00:29:31;;;;;;;;;;;;;;;;;;5134680;27;20410;-64
2021/06/15 00:31:58;;;;;;;;;;;;;;;;;;5134931;27;19931;-63
2021/06/15 00:34:25;;;;;;;;;;;;;;;;;;5135181;27;19923;-63
2021/06/15 00:36:52;;;;;;;;;;;;;;;;;;5134741;27;19924;-64
2021/06/15 00:39:19;;;;;;;;;;;;;;;;;;5134641;27;19934;-64
2021/06/15 00:41:46;;;;;;;;;;;;;;;;;;5134924;27;19924;-64
2021/06/15 00:44:13;;;;;;;;;;;;;;;;;;5134870;27;20006;-64
2021/06/15 00:46:40;;;;;;;;;;;;;;;;;;5134962;27;19974;-64
2021/06/15 00:49:07;;;;;;;;;;;;;;;;;;5134028;27;19924;-63
2021/06/15 00:51:33;;;;;;;;;;;;;;;;;;5134910;27;19930;-63
2021/06/15 00:54:01;;;;;;;;;;;;;;;;;;5134814;27;19923;-64
2021/06/15 00:56:28;;;;;;;;;;;;;;;;;;5134616;27;19927;-63
2021/06/15 00:58:55;;;;;;;;;;;;;;;;;;5134498;27;19931;-64
2021/06/15 01:01:23;;;;;;;;;;;;;;;;;;5134303;27;20379;-64
2021/06/15 01:03:50;;;;;;;;;;;;;;;;;;5134678;27;19923;-63
2021/06/15 01:06:17;;;;;;;;;;;;;;;;;;5134711;27;20002;-63
2021/06/15 01:08:44;;;;;;;;;;;;;;;;;;5153863;27;19923;-64
2021/06/15 01:11:11;;;;;;;;;;;;;;;;;;5154706;27;19923;-64
2021/06/15 01:13:38;;;;;;;;;;;;;;;;;;5154995;27;20393;-63
2021/06/15 01:16:05;;;;;;;;;;;;;;;;;;5154844;27;20309;-64
2021/06/15 01:18:32;;;;;;;;;;;;;;;;;;5155067;27;19923;-63
2021/06/15 01:21:01;;;;;;;;;;;;;;;;;;5154867;27;20022;-63
2021/06/15 01:23:29;;;;;;;;;;;;;;;;;;5154897;27;20397;-63
2021/06/15 01:25:55;;;;;;;;;;;;;;;;;;5135750;27;19923;-63
2021/06/15 01:28:22;;;;;;;;;;;;;;;;;;5134482;27;20347;-63
2021/06/15 01:30:49;;;;;;;;;;;;;;;;;;5133839;27;20332;-64
2021/06/15 01:33:16;;;;;;;;;;;;;;;;;;5134132;27;20371;-64
2021/06/15 01:35:43;;;;;;;;;;;;;;;;;;5133760;27;19930;-63
2021/06/15 01:38:10;;;;;;;;;;;;;;;;;;5133785;27;20014;-64
2021/06/15 01:40:37;;;;;;;;;;;;;;;;;;5133274;27;20271;-63
2021/06/15 01:43:04;;;;;;;;;;;;;;;;;;5133888;27;19923;-63
2021/06/15 01:45:31;;;;;;;;;;;;;;;;;;5133767;27;19930;-63
2021/06/15 01:47:59;;;;;;;;;;;;;;;;;;5133834;27;19923;-63
2021/06/15 01:50:31;;;;;;;;;;;;;;;;;;5133232;27;19924;-63
2021/06/15 01:52:58;;;;;;;;;;;;;;;;;;5133627;27;19930;-63
2021/06/15 01:55:25;;;;;;;;;;;;;;;;;;5133415;27;20001;-64
2021/06/15 01:57:52;;;;;;;;;;;;;;;;;;5133542;27;20033;-63
2021/06/15 02:00:19;;;;;;;;;;;;;;;;;;5132050;27;19935;-64
2021/06/15 02:02:46;;;;;;;;;;;;;;;;;;5133454;27;20405;-63
2021/06/15 02:05:13;;;;;;;;;;;;;;;;;;5132963;27;19923;-63
2021/06/15 02:07:40;;;;;;;;;;;;;;;;;;5143293;27;19923;-63
2021/06/15 02:10:07;;;;;;;;;;;;;;;;;;5153474;27;19930;-64
2021/06/15 02:12:39;;;;;;;;;;;;;;;;;;5153944;27;19930;-64
2021/06/15 02:15:06;;;;;;;;;;;;;;;;;;5153867;27;19923;-63
2021/06/15 02:17:33;;;;;;;;;;;;;;;;;;5153586;27;20010;-63
2021/06/15 02:20:00;;;;;;;;;;;;;;;;;;5153224;27;19927;-64
2021/06/15 02:22:27;;;;;;;;;;;;;;;;;;5153499;27;20404;-63
2021/06/15 02:24:54;;;;;;;;;;;;;;;;;;5143375;27;19934;-63
2021/06/15 02:27:21;;;;;;;;;;;;;;;;;;5132696;27;19923;-63
2021/06/15 02:29:48;;;;;;;;;;;;;;;;;;5132493;27;20302;-64
2021/06/15 02:32:15;;;;;;;;;;;;;;;;;;5132784;27;19923;-63
2021/06/15 02:34:42;;;;;;;;;;;;;;;;;;5132381;27;19923;-62
2021/06/15 02:37:09;;;;;;;;;;;;;;;;;;5132613;27;19928;-63
2021/06/15 02:39:36;;;;;;;;;;;;;;;;;;5132236;27;19923;-63
2021/06/15 02:42:03;;;;;;;;;;;;;;;;;;5132619;27;20010;-63
2021/06/15 02:44:30;;;;;;;;;;;;;;;;;;5132443;27;19923;-63
2021/06/15 02:46:57;;;;;;;;;;;;;;;;;;5132605;27;19923;-63
2021/06/15 02:49:24;;;;;;;;;;;;;;;;;;5132585;27;19927;-63
2021/06/15 02:51:51;;;;;;;;;;;;;;;;;;5132397;27;19923;-63
2021/06/15 02:54:18;;;;;;;;;;;;;;;;;;5132820;27;20181;-62
2021/06/15 02:56:45;;;;;;;;;;;;;;;;;;5132340;27;19923;-63
2021/06/15 02:59:12;;;;;;;;;;;;;;;;;;5132400;27;19923;-62
2021/06/15 03:01:39;;;;;;;;;;;;;;;;;;5132165;28;19931;-63
2021/06/15 03:04:06;;;;;;;;;;;;;;;;;;5132695;28;19927;-63
2021/06/15 03:06:33;;;;;;;;;;;;;;;;;;5132726;27;19929;-63
2021/06/15 03:08:59;;;;;;;;;;;;;;;;;;5153376;27;19927;-63
2021/06/15 03:11:26;;;;;;;;;;;;;;;;;;5153410;27;19923;-63
2021/06/15 03:13:53;;;;;;;;;;;;;;;;;;5157436;27;19923;-64
2021/06/15 03:16:21;;;;;;;;;;;;;;;;;;5157345;27;20246;-63
2021/06/15 03:18:48;;;;;;;;;;;;;;;;;;5120018;22;20018;-73
2021/06/15 03:21:15;;;;;;;;;;;;;;;;;;5095621;28;19924;-72
2021/06/15 03:23:42;;;;;;;;;;;;;;;;;;5095897;28;20310;-72
2021/06/15 03:26:09;;;;;;;;;;;;;;;;;;5096097;28;19946;-72
2021/06/15 03:28:36;;;;;;;;;;;;;;;;;;5095787;28;19924;-74
2021/06/15 03:31:03;;;;;;;;;;;;;;;;;;5095433;28;20429;-71
2021/06/15 03:33:30;;;;;;;;;;;;;;;;;;5095892;28;19963;-73
2021/06/15 03:35:57;;;;;;;;;;;;;;;;;;5095593;28;19930;-72
2021/06/15 03:38:24;;;;;;;;;;;;;;;;;;5096327;28;20346;-72
2021/06/15 03:40:51;;;;;;;;;;;;;;;;;;5095449;28;19924;-72
2021/06/15 03:43:18;;;;;;;;;;;;;;;;;;5095581;28;19990;-71
2021/06/15 03:45:45;;;;;;;;;;;;;;;;;;5095391;28;19924;-72
2021/06/15 03:48:11;;;;;;;;;;;;;;;;;;5095497;28;19931;-71
2021/06/15 03:50:38;;;;;;;;;;;;;;;;;;5095254;28;19967;-73
2021/06/15 03:53:05;;;;;;;;;;;;;;;;;;5095539;28;20019;-73
2021/06/15 03:55:33;;;;;;;;;;;;;;;;;;5095758;28;19940;-73
2021/06/15 03:58:02;;;;;;;;;;;;;;;;;;5095430;28;19946;-73
2021/06/15 04:00:29;;;;;;;;;;;;;;;;;;5095871;28;20022;-73
2021/06/15 04:02:56;;;;;;;;;;;;;;;;;;5095435;28;19947;-71
2021/06/15 04:05:26;;;;;;;;;;;;;;;;;;5095400;28;19924;-71
2021/06/15 04:07:53;;;;;;;;;;;;;;;;;;5106926;28;19930;-73
2021/06/15 04:10:20;;;;;;;;;;;;;;;;;;5115387;28;19930;-73
2021/06/15 04:12:47;;;;;;;;;;;;;;;;;;5115591;28;20288;-73
2021/06/15 04:15:14;;;;;;;;;;;;;;;;;;5115715;28;20018;-73
2021/06/15 04:17:41;;;;;;;;;;;;;;;;;;5115277;28;20387;-72
2021/06/15 04:20:08;;;;;;;;;;;;;;;;;;5114973;28;19931;-70
2021/06/15 04:22:35;;;;;;;;;;;;;;;;;;5115384;28;19927;-72
2021/06/15 04:25:05;;;;;;;;;;;;;;;;;;5103589;28;20338;-73
2021/06/15 04:27:34;;;;;;;;;;;;;;;;;;5095478;28;19931;-72
2021/06/15 04:30:02;;;;;;;;;;;;;;;;;;5095205;28;19978;-72
2021/06/15 04:32:29;;;;;;;;;;;;;;;;;;5095203;28;19979;-71
2021/06/15 04:34:56;;;;;;;;;;;;;;;;;;5095117;28;19925;-73
2021/06/15 04:37:23;;;;;;;;;;;;;;;;;;5094480;28;20010;-72
2021/06/15 04:39:50;;;;;;;;;;;;;;;;;;5094097;28;19924;-73
2021/06/15 04:42:17;;;;;;;;;;;;;;;;;;5094686;28;20306;-71
2021/06/15 04:44:44;;;;;;;;;;;;;;;;;;5094611;28;19924;-72
2021/06/15 04:47:11;;;;;;;;;;;;;;;;;;5094453;28;20010;-71
2021/06/15 04:49:41;;;;;;;;;;;;;;;;;;5094258;28;19928;-73
2021/06/15 04:52:08;;;;;;;;;;;;;;;;;;5094619;28;19935;-72
2021/06/15 04:54:35;;;;;;;;;;;;;;;;;;5094706;28;19928;-71
2021/06/15 04:57:02;;;;;;;;;;;;;;;;;;5094637;28;19934;-71
2021/06/15 04:59:29;;;;;;;;;;;;;;;;;;5094728;28;20276;-72
2021/06/15 05:01:56;;;;;;;;;;;;;;;;;;5094344;28;20191;-71
2021/06/15 05:04:23;;;;;;;;;;;;;;;;;;5093886;28;20302;-73
2021/06/15 05:06:50;;;;;;;;;;;;;;;;;;5093856;28;19924;-72
2021/06/15 05:09:17;;;;;;;;;;;;;;;;;;5094002;28;20359;-70
2021/06/15 05:11:44;;;;;;;;;;;;;;;;;;5093836;28;19924;-71
2021/06/15 05:14:11;;;;;;;;;;;;;;;;;;5110282;28;19924;-72
2021/06/15 05:16:38;;;;;;;;;;;;;;;;;;5105382;28;19928;-72
2021/06/15 05:19:05;;;;;;;;;;;;;;;;;;5094661;28;20295;-71
2021/06/15 05:21:32;;;;;;;;;;;;;;;;;;5093972;28;19978;-72
2021/06/15 05:24:01;;;;;;;;;;;;;;;;;;5094228;28;19924;-71
2021/06/15 05:26:28;;;;;;;;;;;;;;;;;;5094154;28;20287;-71
2021/06/15 05:28:54;;;;;;;;;;;;;;;;;;5094042;28;20398;-70
2021/06/15 05:31:21;;;;;;;;;;;;;;;;;;5093434;28;20018;-72
2021/06/15 05:33:48;;;;;;;;;;;;;;;;;;5094779;28;19935;-71
2021/06/15 05:36:15;;;;;;;;;;;;;;;;;;5092995;28;20353;-71
2021/06/15 05:38:42;;;;;;;;;;;;;;;;;;5093691;28;19930;-70
2021/06/15 05:41:12;;;;;;;;;;;;;;;;;;5093032;28;20015;-70
2021/06/15 05:43:39;;;;;;;;;;;;;;;;;;5093415;28;20396;-72
2021/06/15 05:46:06;;;;;;;;;;;;;;;;;;5092925;28;19928;-70
2021/06/15 05:48:33;;;;;;;;;;;;;;;;;;5092734;28;20287;-70
2021/06/15 05:50:59;;;;;;;;;;;;;;;;;;5092974;28;19924;-71
2021/06/15 05:53:27;;;;;;;;;;;;;;;;;;5093115;28;19930;-71
2021/06/15 05:55:55;;;;;;;;;;;;;;;;;;5093095;28;19924;-71
2021/06/15 05:58:22;;;;;;;;;;;;;;;;;;5093309;28;20410;-72
2021/06/15 06:00:49;;;;;;;;;;;;;;;;;;5094786;28;19928;-70
2021/06/15 06:03:21;;;;;;;;;;;;;;;;;;5110503;28;19928;-71
2021/06/15 06:08:32;;;;;;;;;;;;;;;;;;5110340;28;19953;-72
2021/06/15 06:10:59;;;;;;;;;;;;;;;;;;5112979;28;19928;-72
2021/06/15 06:13:26;;;;;;;;;;;;;;;;;;5112854;28;19944;-71
2021/06/15 06:15:55;;;;;;;;;;;;;;;;;;5112891;28;19924;-71
2021/06/15 06:18:22;;;;;;;;;;;;;;;;;;5112523;28;19924;-69
2021/06/15 06:20:49;;;;;;;;;;;;;;;;;;5112526;28;19924;-71
2021/06/15 06:23:18;;;;;;;;;;;;;;;;;;5113353;28;19924;-70
2021/06/15 06:25:46;;;;;;;;;;;;;;;;;;5096858;28;19970;-71
2021/06/15 06:28:13;;;;;;;;;;;;;;;;;;5092697;28;20422;-70
2021/06/15 06:30:40;;;;;;;;;;;;;;;;;;5093407;28;20034;-74
2021/06/15 06:33:07;;;;;;;;;;;;;;;;;;5093229;28;19930;-72
2021/06/15 06:35:34;;;;;;;;;;;;;;;;;;5093483;28;19924;-72
2021/06/15 06:38:01;;;;;;;;;;;;;;;;;;5093199;28;19924;-70
2021/06/15 06:40:29;;;;;;;;;;;;;;;;;;5092534;28;19930;-73
2021/06/15 06:42:56;;;;;;;;;;;;;;;;;;5092892;28;19928;-70
2021/06/15 06:45:23;;;;;;;;;;;;;;;;;;5092749;28;19931;-69
2021/06/15 06:47:50;;;;;;;;;;;;;;;;;;5092265;28;20368;-71
2021/06/15 06:50:17;;;;;;;;;;;;;;;;;;5099250;28;19924;-72
2021/06/15 06:52:44;;;;;;;;;;;;;;;;;;5103475;28;20010;-69
2021/06/15 06:55:11;;;;;;;;;;;;;;;;;;5093968;28;19924;-71
2021/06/15 06:57:39;;;;;;;;;;;;;;;;;;5092172;28;20357;-70
2021/06/15 07:00:06;;;;;;;;;;;;;;;;;;5092394;28;19931;-70
2021/06/15 07:02:33;;;;;;;;;;;;;;;;;;5093159;28;19931;-71
2021/06/15 07:05:00;;;;;;;;;;;;;;;;;;5093327;28;20395;-72
2021/06/15 07:07:27;;;;;;;;;;;;;;;;;;5093414;28;19924;-69
2021/06/15 07:09:54;;;;;;;;;;;;;;;;;;5092168;28;19931;-72
2021/06/15 07:12:21;;;;;;;;;;;;;;;;;;5092707;28;19935;-69
2021/06/15 07:14:48;;;;;;;;;;;;;;;;;;5092931;28;20307;-71
2021/06/15 07:17:15;;;;;;;;;;;;;;;;;;5092437;28;19931;-70
2021/06/15 07:19:42;;;;;;;;;;;;;;;;;;5091834;28;19924;-69
2021/06/15 07:22:09;;;;;;;;;;;;;;;;;;5092944;28;19930;-72
2021/06/15 07:24:37;;;;;;;;;;;;;;;;;;5092880;28;20015;-70
2021/06/15 07:27:04;;;;;;;;;;;;;;;;;;5092553;28;19930;-71
2021/06/15 07:29:31;;;;;;;;;;;;;;;;;;5091716;28;19928;-69
2021/06/15 07:31:58;;;;;;;;;;;;;;;;;;5091550;28;19975;-70
2021/06/15 07:34:25;;;;;;;;;;;;;;;;;;5092255;28;19964;-70
2021/06/15 07:36:52;;;;;;;;;;;;;;;;;;5091550;28;20461;-72
2021/06/15 07:39:19;;;;;;;;;;;;;;;;;;5102385;28;19924;-69
2021/06/15 07:41:46;;;;;;;;;;;;;;;;;;5107018;28;19924;-69
2021/06/15 07:44:13;;;;;;;;;;;;;;;;;;5091609;28;20295;-71
2021/06/15 07:46:40;;;;;;;;;;;;;;;;;;5091447;28;19928;-72
2021/06/15 07:49:07;;;;;;;;;;;;;;;;;;5091214;28;19924;-69
2021/06/15 07:51:34;;;;;;;;;;;;;;;;;;5091170;28;19932;-73
2021/06/15 07:54:01;;;;;;;;;;;;;;;;;;5091319;28;20400;-72
2021/06/15 07:56:31;;;;;;;;;;;;;;;;;;5091525;28;20323;-70
2021/06/15 07:58:58;;;;;;;;;;;;;;;;;;5092726;28;20295;-72
2021/06/15 08:01:25;;;;;;;;;;;;;;;;;;5094935;28;20019;-71
2021/06/15 08:03:52;;;;;;;;;;;;;;;;;;5094913;28;20402;-74
2021/06/15 08:06:19;;;;;;;;;;;;;;;;;;5095158;28;19924;-71
2021/06/15 08:08:46;;;;;;;;;;;;;;;;;;5114141;28;19924;-72
2021/06/15 08:11:13;;;;;;;;;;;;;;;;;;5115404;28;19924;-71
2021/06/15 08:13:40;;;;;;;;;;;;;;;;;;5115352;28;19928;-73
2021/06/15 08:16:07;;;;;;;;;;;;;;;;;;5115314;28;20374;-71
2021/06/15 08:18:33;;;;;;;;;;;;;;;;;;5115129;28;19930;-73
2021/06/15 08:21:00;;;;;;;;;;;;;;;;;;5114900;28;19923;-72
2021/06/15 08:23:28;;;;;;;;;;;;;;;;;;5115418;28;20298;-71
2021/06/15 08:25:55;;;;;;;;;;;;;;;;;;5096449;28;19924;-71
2021/06/15 08:28:22;;;;;;;;;;;;;;;;;;5099607;28;19924;-71
2021/06/15 08:30:49;;;;;;;;;;;;;;;;;;5094007;28;20314;-71
2021/06/15 08:33:17;;;;;;;;;;;;;;;;;;5094379;28;19934;-72
2021/06/15 08:35:44;;;;;;;;;;;;;;;;;;5094035;28;19951;-71
2021/06/15 08:38:11;;;;;;;;;;;;;;;;;;5094036;28;19978;-72
2021/06/15 08:40:38;;;;;;;;;;;;;;;;;;5093853;28;19930;-70
2021/06/15 08:43:05;;;;;;;;;;;;;;;;;;5094129;28;19924;-72
2021/06/15 08:45:34;;;;;;;;;;;;;;;;;;5093806;28;19928;-70
2021/06/15 08:48:01;;;;;;;;;;;;;;;;;;5094002;28;20391;-73
2021/06/15 08:50:28;;;;;;;;;;;;;;;;;;5094117;28;20019;-71
2021/06/15 08:52:55;;;;;;;;;;;;;;;;;;5094045;28;19924;-72
2021/06/15 08:55:22;;;;;;;;;;;;;;;;;;5094533;28;19930;-71
2021/06/15 08:57:49;;;;;;;;;;;;;;;;;;5094220;28;20023;-73
2021/06/15 09:00:16;;;;;;;;;;;;;;;;;;5093451;28;19972;-72
2021/06/15 09:02:43;;;;;;;;;;;;;;;;;;5093860;28;20285;-70
2021/06/15 09:05:10;;;;;;;;;;;;;;;;;;5093918;28;19928;-72
2021/06/15 09:07:37;;;;;;;;;;;;;;;;;;5093496;28;19924;-73
2021/06/15 09:10:04;;;;;;;;;;;;;;;;;;5093074;28;19923;-73
2021/06/15 09:12:31;;;;;;;;;;;;;;;;;;5093337;28;20300;-73
2021/06/15 09:14:58;;;;;;;;;;;;;;;;;;5093515;28;19937;-73
2021/06/15 09:17:25;;;;;;;;;;;;;;;;;;5105056;22;19924;-65
2021/06/15 09:19:52;;;;;;;;;;;;;;;;;;5073159;28;20030;-65
2021/06/15 09:22:18;;;;;;;;;;;;;;;;;;5073239;28;19924;-65
2021/06/15 09:24:45;;;;;;;;;;;;;;;;;;5073352;28;19924;-65
2021/06/15 09:27:14;;;;;;;;;;;;;;;;;;5072855;28;19924;-65
2021/06/15 09:29:41;;;;;;;;;;;;;;;;;;5073139;28;19925;-66
2021/06/15 09:32:08;;;;;;;;;;;;;;;;;;5072898;28;20412;-63
2021/06/15 09:34:35;;;;;;;;;;;;;;;;;;5073190;28;19929;-64
2021/06/15 09:37:01;;;;;;;;;;;;;;;;;;5072719;28;19937;-66
2021/06/15 09:39:28;;;;;;;;;;;;;;;;;;5072420;28;20006;-63
2021/06/15 09:41:55;;;;;;;;;;;;;;;;;;5072533;28;20395;-64
2021/06/15 09:44:24;;;;;;;;;;;;;;;;;;5072960;28;19931;-65
2021/06/15 09:46:51;;;;;;;;;;;;;;;;;;5072610;28;20289;-64
2021/06/15 09:49:18;;;;;;;;;;;;;;;;;;5072051;28;20026;-64
2021/06/15 09:51:45;;;;;;;;;;;;;;;;;;5072825;28;20043;-64
2021/06/15 09:54:12;;;;;;;;;;;;;;;;;;5071948;28;20380;-64
2021/06/15 09:56:39;;;;;;;;;;;;;;;;;;5072266;28;19925;-64
2021/06/15 09:59:06;;;;;;;;;;;;;;;;;;5072085;28;20124;-64
2021/06/15 10:01:34;;;;;;;;;;;;;;;;;;5071916;28;20059;-64
2021/06/15 10:04:01;;;;;;;;;;;;;;;;;;5071961;28;20410;-65
2021/06/15 10:06:28;;;;;;;;;;;;;;;;;;5072080;28;19924;-65
2021/06/15 10:08:55;;;;;;;;;;;;;;;;;;5092166;28;19928;-65
2021/06/15 10:11:22;;;;;;;;;;;;;;;;;;5092121;28;19924;-65
2021/06/15 10:13:48;;;;;;;;;;;;;;;;;;5092367;28;20331;-65
2021/06/15 10:16:16;;;;;;;;;;;;;;;;;;5092085;28;19924;-65
2021/06/15 10:18:43;;;;;;;;;;;;;;;;;;5092059;28;19931;-65
2021/06/15 10:21:10;;;;;;;;;;;;;;;;;;5091260;28;19931;-65
2021/06/15 10:23:37;;;;;;;;;;;;;;;;;;5091779;28;20014;-65
2021/06/15 10:26:06;;;;;;;;;;;;;;;;;;5072692;28;19929;-65
2021/06/15 10:28:33;;;;;;;;;;;;;;;;;;5071862;28;19930;-64
2021/06/15 10:31:00;;;;;;;;;;;;;;;;;;5079568;28;19925;-64
2021/06/15 10:33:27;;;;;;;;;;;;;;;;;;5080611;28;19935;-65
2021/06/15 10:35:54;;;;;;;;;;;;;;;;;;5080670;28;19988;-64
2021/06/15 10:38:21;;;;;;;;;;;;;;;;;;5072818;28;19924;-64
2021/06/15 10:40:48;;;;;;;;;;;;;;;;;;5071240;28;19931;-64
2021/06/15 10:43:17;;;;;;;;;;;;;;;;;;5072011;28;19925;-64
2021/06/15 10:45:44;;;;;;;;;;;;;;;;;;5071323;28;19928;-64
2021/06/15 10:48:12;;;;;;;;;;;;;;;;;;5071620;28;19990;-64
2021/06/15 10:50:39;;;;;;;;;;;;;;;;;;5070750;28;19931;-64
2021/06/15 10:53:08;;;;;;;;;;;;;;;;;;5071636;28;19924;-64
2021/06/15 10:55:35;;;;;;;;;;;;;;;;;;5071438;28;19971;-64
2021/06/15 10:58:02;;;;;;;;;;;;;;;;;;5071335;28;19924;-64
2021/06/15 11:00:29;;;;;;;;;;;;;;;;;;5071003;28;19924;-64
2021/06/15 11:02:56;;;;;;;;;;;;;;;;;;5070991;28;19924;-64
2021/06/15 11:05:23;;;;;;;;;;;;;;;;;;5071319;28;19925;-64
2021/06/15 11:07:50;;;;;;;;;;;;;;;;;;5070748;28;20384;-64
2021/06/15 11:10:17;;;;;;;;;;;;;;;;;;5071160;28;19925;-64
2021/06/15 11:12:44;;;;;;;;;;;;;;;;;;5071115;28;19932;-64
2021/06/15 11:15:11;;;;;;;;;;;;;;;;;;5071278;28;20331;-64
2021/06/15 11:17:38;;;;;;;;;;;;;;;;;;5070860;28;19924;-64
2021/06/15 11:20:05;;;;;;;;;;;;;;;;;;5070940;28;20384;-65
2021/06/15 11:22:33;;;;;;;;;;;;;;;;;;5071389;28;19931;-64
2021/06/15 11:25:03;;;;;;;;;;;;;;;;;;5071160;28;20395;-65
2021/06/15 11:27:30;;;;;;;;;;;;;;;;;;5071494;28;19924;-64
2021/06/15 11:29:57;;;;;;;;;;;;;;;;;;5070565;28;20015;-64
2021/06/15 11:32:24;;;;;;;;;;;;;;;;;;5071722;28;19952;-64
2021/06/15 11:34:51;;;;;;;;;;;;;;;;;;5074845;28;20022;-65
2021/06/15 11:37:18;;;;;;;;;;;;;;;;;;5074755;28;20355;-64
2021/06/15 11:39:45;;;;;;;;;;;;;;;;;;5074769;28;20020;-64
2021/06/15 11:42:18;;;;;;;;;;;;;;;;;;5075107;28;19924;-64
2021/06/15 11:44:45;;;;;;;;;;;;;;;;;;5075254;28;20027;-64
2021/06/15 11:47:12;;;;;;;;;;;;;;;;;;5075316;28;19924;-64
2021/06/15 11:49:39;;;;;;;;;;;;;;;;;;5074767;28;19932;-64
2021/06/15 11:52:06;;;;;;;;;;;;;;;;;;5074862;28;19957;-64
2021/06/15 11:54:33;;;;;;;;;;;;;;;;;;5074948;28;19924;-64
2021/06/15 11:57:00;;;;;;;;;;;;;;;;;;5074684;28;20039;-64
2021/06/15 11:59:27;;;;;;;;;;;;;;;;;;5074356;28;20311;-64
2021/06/15 12:01:54;;;;;;;;;;;;;;;;;;5074773;28;20034;-64
2021/06/15 12:04:21;;;;;;;;;;;;;;;;;;5074419;28;19925;-65
2021/06/15 12:06:48;;;;;;;;;;;;;;;;;;5077280;28;19924;-64
2021/06/15 12:09:15;;;;;;;;;;;;;;;;;;5094772;28;19924;-64
2021/06/15 12:11:41;;;;;;;;;;;;;;;;;;5095046;28;19940;-64
2021/06/15 12:14:08;;;;;;;;;;;;;;;;;;5094907;28;20307;-64
2021/06/15 12:16:35;;;;;;;;;;;;;;;;;;5094947;28;19924;-64
2021/06/15 12:19:02;;;;;;;;;;;;;;;;;;5094646;28;19931;-64
2021/06/15 12:21:30;;;;;;;;;;;;;;;;;;5094489;28;19924;-65
2021/06/15 12:23:57;;;;;;;;;;;;;;;;;;5092956;28;19924;-64
2021/06/15 12:26:24;;;;;;;;;;;;;;;;;;5074240;28;19935;-64
2021/06/15 12:28:51;;;;;;;;;;;;;;;;;;5074372;28;19959;-65
2021/06/15 12:31:18;;;;;;;;;;;;;;;;;;5073961;28;19931;-63
2021/06/15 12:33:45;;;;;;;;;;;;;;;;;;5074478;28;19924;-65
2021/06/15 12:36:12;;;;;;;;;;;;;;;;;;5073908;28;19935;-64
2021/06/15 12:38:39;;;;;;;;;;;;;;;;;;5074068;28;20015;-63
2021/06/15 12:41:06;;;;;;;;;;;;;;;;;;5073545;28;19924;-65
2021/06/15 12:43:33;;;;;;;;;;;;;;;;;;5074493;28;19924;-63
2021/06/15 12:46:00;;;;;;;;;;;;;;;;;;5073301;28;19925;-65
2021/06/15 12:48:27;;;;;;;;;;;;;;;;;;5074104;28;19960;-64
2021/06/15 12:50:54;;;;;;;;;;;;;;;;;;5073485;28;19935;-63
2021/06/15 12:53:21;;;;;;;;;;;;;;;;;;5073643;28;19925;-64
2021/06/15 12:55:48;;;;;;;;;;;;;;;;;;5074531;28;20011;-64
2021/06/15 12:58:15;;;;;;;;;;;;;;;;;;5074030;28;19924;-64
2021/06/15 13:00:42;;;;;;;;;;;;;;;;;;5073177;28;20015;-65
2021/06/15 13:03:08;;;;;;;;;;;;;;;;;;5073679;28;20362;-64
2021/06/15 13:05:35;;;;;;;;;;;;;;;;;;5073558;28;19925;-64
2021/06/15 13:08:02;;;;;;;;;;;;;;;;;;5073324;28;19924;-64
2021/06/15 13:10:29;;;;;;;;;;;;;;;;;;5073334;28;19924;-64
2021/06/15 13:12:57;;;;;;;;;;;;;;;;;;5073583;28;19925;-64
2021/06/15 13:15:24;;;;;;;;;;;;;;;;;;5073457;28;19973;-64
2021/06/15 13:17:51;;;;;;;;;;;;;;;;;;5073050;28;20403;-64
2021/06/15 13:20:18;;;;;;;;;;;;;;;;;;5073189;28;20007;-64
2021/06/15 13:22:45;;;;;;;;;;;;;;;;;;5072942;28;20448;-64
2021/06/15 13:25:12;;;;;;;;;;;;;;;;;;5073623;28;19924;-64
2021/06/15 13:27:40;;;;;;;;;;;;;;;;;;5073019;28;19924;-64
2021/06/15 13:30:07;;;;;;;;;;;;;;;;;;5072743;28;19954;-64
2021/06/15 13:32:34;;;;;;;;;;;;;;;;;;5073042;28;19934;-64
2021/06/15 13:35:02;;;;;;;;;;;;;;;;;;5073027;28;19924;-64
2021/06/15 13:37:29;;;;;;;;;;;;;;;;;;5073156;28;19924;-65
2021/06/15 13:39:56;;;;;;;;;;;;;;;;;;5072824;28;19930;-64
2021/06/15 13:42:24;;;;;;;;;;;;;;;;;;5072829;28;20407;-64
2021/06/15 13:44:51;;;;;;;;;;;;;;;;;;5072608;28;19979;-64
2021/06/15 13:47:18;;;;;;;;;;;;;;;;;;5072526;28;20075;-64
2021/06/15 13:49:45;;;;;;;;;;;;;;;;;;5072333;28;20060;-64
2021/06/15 13:52:12;;;;;;;;;;;;;;;;;;5072645;28;19950;-64
2021/06/15 13:54:39;;;;;;;;;;;;;;;;;;5072610;28;19925;-64
2021/06/15 13:57:06;;;;;;;;;;;;;;;;;;5071712;28;20023;-64
2021/06/15 13:59:33;;;;;;;;;;;;;;;;;;5072182;28;19928;-64
2021/06/15 14:02:00;;;;;;;;;;;;;;;;;;5072148;28;19924;-64
2021/06/15 14:04:27;;;;;;;;;;;;;;;;;;5072104;28;20396;-64
2021/06/15 14:06:54;;;;;;;;;;;;;;;;;;5075499;28;19957;-64
2021/06/15 14:09:21;;;;;;;;;;;;;;;;;;5092227;28;19930;-64
2021/06/15 14:11:48;;;;;;;;;;;;;;;;;;5092386;28;19947;-64
2021/06/15 14:14:15;;;;;;;;;;;;;;;;;;5092372;28;19928;-63
2021/06/15 14:16:42;;;;;;;;;;;;;;;;;;5091945;28;20331;-64
2021/06/15 14:19:09;;;;;;;;;;;;;;;;;;5091828;28;19928;-64
2021/06/15 14:21:38;;;;;;;;;;;;;;;;;;5092189;28;19924;-64
2021/06/15 14:24:05;;;;;;;;;;;;;;;;;;5089185;28;19936;-64
2021/06/15 14:26:32;;;;;;;;;;;;;;;;;;5071973;28;19924;-64
2021/06/15 14:28:59;;;;;;;;;;;;;;;;;;5071804;28;19924;-64
2021/06/15 14:31:25;;;;;;;;;;;;;;;;;;5071500;28;19924;-64
2021/06/15 14:33:52;;;;;;;;;;;;;;;;;;5072169;28;20015;-64
2021/06/15 14:36:19;;;;;;;;;;;;;;;;;;5072147;28;19924;-64
2021/06/15 14:38:49;;;;;;;;;;;;;;;;;;5071793;28;19931;-64
2021/06/15 14:41:16;;;;;;;;;;;;;;;;;;5071474;28;20029;-64
2021/06/15 14:43:43;;;;;;;;;;;;;;;;;;5071576;28;19931;-64
2021/06/15 14:46:10;;;;;;;;;;;;;;;;;;5071554;28;19929;-64
2021/06/15 14:48:37;;;;;;;;;;;;;;;;;;5071970;28;19978;-64
2021/06/15 14:51:04;;;;;;;;;;;;;;;;;;5071066;28;20414;-64
2021/06/15 14:53:31;;;;;;;;;;;;;;;;;;5071726;28;19925;-65
2021/06/15 14:55:58;;;;;;;;;;;;;;;;;;5071297;28;19925;-64
2021/06/15 14:58:25;;;;;;;;;;;;;;;;;;5071235;28;19931;-64
2021/06/15 15:00:53;;;;;;;;;;;;;;;;;;5071647;28;19931;-64
2021/06/15 15:03:20;;;;;;;;;;;;;;;;;;5071390;28;19924;-64
2021/06/15 15:05:47;;;;;;;;;;;;;;;;;;5071752;28;19970;-64
2021/06/15 15:08:14;;;;;;;;;;;;;;;;;;5071685;28;19947;-64
2021/06/15 15:10:41;;;;;;;;;;;;;;;;;;5071455;28;19924;-65
2021/06/15 15:13:08;;;;;;;;;;;;;;;;;;5071213;28;19931;-64
2021/06/15 15:15:35;;;;;;;;;;;;;;;;;;5071652;28;20414;-65
2021/06/15 15:18:02;;;;;;;;;;;;;;;;;;5071649;28;19924;-65
2021/06/15 15:20:29;;;;;;;;;;;;;;;;;;5071300;28;19931;-65
2021/06/15 15:22:56;;;;;;;;;;;;;;;;;;5071279;28;19924;-64
2021/06/15 15:25:23;;;;;;;;;;;;;;;;;;5071153;28;20356;-65
2021/06/15 15:27:50;;;;;;;;;;;;;;;;;;5070824;28;19924;-65
2021/06/15 15:30:17;;;;;;;;;;;;;;;;;;5070791;28;19925;-65
2021/06/15 15:32:44;;;;;;;;;;;;;;;;;;5071223;28;19930;-65
2021/06/15 15:35:11;;;;;;;;;;;;;;;;;;5071281;28;20023;-65
2021/06/15 15:37:38;;;;;;;;;;;;;;;;;;5071189;28;20015;-65
2021/06/15 15:40:05;;;;;;;;;;;;;;;;;;5070518;28;19934;-64
2021/06/15 15:42:33;;;;;;;;;;;;;;;;;;5070943;28;20051;-64
2021/06/15 15:45:00;;;;;;;;;;;;;;;;;;5071048;28;19990;-64
2021/06/15 15:47:27;;;;;;;;;;;;;;;;;;5070634;28;19928;-65
2021/06/15 15:49:54;;;;;;;;;;;;;;;;;;5070667;28;19931;-65
2021/06/15 15:52:21;;;;;;;;;;;;;;;;;;5070719;28;19924;-64
2021/06/15 15:54:48;;;;;;;;;;;;;;;;;;5070831;28;20307;-64
2021/06/15 15:57:16;;;;;;;;;;;;;;;;;;5070677;28;19928;-64
2021/06/15 15:59:43;;;;;;;;;;;;;;;;;;5070582;28;19932;-64
2021/06/15 16:02:10;;;;;;;;;;;;;;;;;;5071074;28;20296;-64
2021/06/15 16:04:38;;;;;;;;;;;;;;;;;;5078664;28;19924;-64
2021/06/15 16:07:05;;;;;;;;;;;;;;;;;;5084160;28;19932;-64
2021/06/15 16:09:32;;;;;;;;;;;;;;;;;;5098863;28;19936;-64
2021/06/15 16:11:59;;;;;;;;;;;;;;;;;;5091205;28;19924;-64
2021/06/15 16:14:26;;;;;;;;;;;;;;;;;;5091277;28;20299;-64
2021/06/15 16:16:53;;;;;;;;;;;;;;;;;;5091211;28;19924;-64
2021/06/15 16:19:20;;;;;;;;;;;;;;;;;;5090887;28;19924;-64
2021/06/15 16:21:47;;;;;;;;;;;;;;;;;;5094444;28;19950;-64
2021/06/15 16:24:14;;;;;;;;;;;;;;;;;;5090614;28;19924;-65
2021/06/15 16:26:41;;;;;;;;;;;;;;;;;;5074040;28;19936;-64
2021/06/15 16:29:08;;;;;;;;;;;;;;;;;;5074208;28;20035;-64
2021/06/15 16:31:35;;;;;;;;;;;;;;;;;;5074056;28;19978;-64
2021/06/15 16:34:02;;;;;;;;;;;;;;;;;;5074487;28;20399;-64
2021/06/15 16:36:29;;;;;;;;;;;;;;;;;;5073659;28;20047;-64
2021/06/15 16:38:56;;;;;;;;;;;;;;;;;;5073918;28;19956;-64
2021/06/15 16:41:25;;;;;;;;;;;;;;;;;;5073973;28;19979;-64
2021/06/15 16:43:52;;;;;;;;;;;;;;;;;;5074005;28;19924;-64
2021/06/15 16:46:19;;;;;;;;;;;;;;;;;;5074092;28;20399;-64